sensor_id;sensor_type;location;lat;lon;timestamp;temperature;humidity
3053;DHT22;1536;51.098;6.414;2023-08-06T00:01:48;18.30;99.90
3053;DHT22;1536;51.098;6.414;2023-08-06T00:04:15;18.30;99.90
3053;DHT22;1536;51.098;6.414;2023-08-06T00:06:42;18.30;99.90
3053;DHT22;1536;51.098;6.414;2023-08-06T00:09:08;18.30;99.90
3053;DHT22;1536;51.098;6.414;2023-08-06T00:11:35;18.30;99.90
3053;DHT22;1536;51.098;6.414;2023-08-06T00:14:03;18.30;99.90
3053;DHT22;1536;51.098;6.414;2023-08-06T00:16:30;18.30;99.90
3053;DHT22;1536;51.098;6.414;2023-08-06T00:18:57;18.30;99.90
3053;DHT22;1536;51.098;6.414;2023-08-06T00:21:23;18.30;99.90
3053;DHT22;1536;51.098;6.414;2023-08-06T00:23:50;18.30;99.90
3053;DHT22;1536;51.098;6.414;2023-08-06T00:26:17;18.20;99.90
3053;DHT22;1536;51.098;6.414;2023-08-06T00:28:45;18.20;99.90
3053;DHT22;1536;51.098;6.414;2023-08-06T00:31:13;18.20;99.90
3053;DHT22;1536;51.098;6.414;2023-08-06T00:33:42;18.20;99.90
3053;DHT22;1536;51.098;6.414;2023-08-06T00:36:08;18.20;99.90
3053;DHT22;1536;51.098;6.414;2023-08-06T00:38:35;18.20;99.90
3053;DHT22;1536;51.098;6.414;2023-08-06T00:41:02;18.20;99.90
3053;DHT22;1536;51.098;6.414;2023-08-06T00:43:29;18.20;99.90
3053;DHT22;1536;51.098;6.414;2023-08-06T00:45:56;18.20;99.90
3053;DHT22;1536;51.098;6.414;2023-08-06T00:48:24;18.20;99.90
3053;DHT22;1536;51.098;6.414;2023-08-06T00:50:51;18.20;99.90
3053;DHT22;1536;51.098;6.414;2023-08-06T00:53:18;18.20;99.90
3053;DHT22;1536;51.098;6.414;2023-08-06T00:55:45;18.20;99.90
3053;DHT22;1536;51.098;6.414;2023-08-06T00:58:13;18.20;99.90
3053;DHT22;1536;51.098;6.414;2023-08-06T01:00:40;18.20;99.90
3053;DHT22;1536;51.098;6.414;2023-08-06T01:03:08;18.20;99.90
3053;DHT22;1536;51.098;6.414;2023-08-06T01:05:38;18.20;99.90
3053;DHT22;1536;51.098;6.414;2023-08-06T01:08:19;18.30;99.90
3053;DHT22;1536;51.098;6.414;2023-08-06T01:11:00;18.30;99.90
3053;DHT22;1536;51.098;6.414;2023-08-06T01:13:41;18.30;99.90
3053;DHT22;1536;51.098;6.414;2023-08-06T01:16:09;18.30;99.90
3053;DHT22;1536;51.098;6.414;2023-08-06T01:18:36;18.30;99.90
3053;DHT22;1536;51.098;6.414;2023-08-06T01:21:08;18.30;99.90
3053;DHT22;1536;51.098;6.414;2023-08-06T01:23:35;18.30;99.90
3053;DHT22;1536;51.098;6.414;2023-08-06T01:26:10;18.30;99.90
3053;DHT22;1536;51.098;6.414;2023-08-06T01:28:43;18.30;99.90
3053;DHT22;1536;51.098;6.414;2023-08-06T01:31:15;18.30;99.90
3053;DHT22;1536;51.098;6.414;2023-08-06T01:33:47;18.30;99.90
3053;DHT22;1536;51.098;6.414;2023-08-06T01:36:16;18.30;99.90
3053;DHT22;1536;51.098;6.414;2023-08-06T01:38:44;18.30;99.90
3053;DHT22;1536;51.098;6.414;2023-08-06T01:41:12;18.30;99.90
3053;DHT22;1536;51.098;6.414;2023-08-06T01:43:39;18.30;99.90
3053;DHT22;1536;51.098;6.414;2023-08-06T01:46:07;18.30;99.90
3053;DHT22;1536;51.098;6.414;2023-08-06T01:48:34;18.30;99.90
3053;DHT22;1536;51.098;6.414;2023-08-06T01:51:00;18.30;99.90
3053;DHT22;1536;51.098;6.414;2023-08-06T01:53:28;18.40;99.90
3053;DHT22;1536;51.098;6.414;2023-08-06T01:55:56;18.40;99.90
3053;DHT22;1536;51.098;6.414;2023-08-06T01:58:23;18.40;99.90
3053;DHT22;1536;51.098;6.414;2023-08-06T02:00:50;18.40;99.90
3053;DHT22;1536;51.098;6.414;2023-08-06T02:03:17;18.40;99.90
3053;DHT22;1536;51.098;6.414;2023-08-06T02:05:44;18.30;99.90
3053;DHT22;1536;51.098;6.414;2023-08-06T02:08:11;18.30;99.90
3053;DHT22;1536;51.098;6.414;2023-08-06T02:10:39;18.30;99.90
3053;DHT22;1536;51.098;6.414;2023-08-06T02:13:07;18.30;99.90
3053;DHT22;1536;51.098;6.414;2023-08-06T02:15:33;18.30;99.90
3053;DHT22;1536;51.098;6.414;2023-08-06T02:18:00;18.30;99.90
3053;DHT22;1536;51.098;6.414;2023-08-06T02:20:27;18.30;99.90
3053;DHT22;1536;51.098;6.414;2023-08-06T02:22:54;18.30;99.90
3053;DHT22;1536;51.098;6.414;2023-08-06T02:25:20;18.30;99.90
3053;DHT22;1536;51.098;6.414;2023-08-06T02:27:51;18.20;99.90
3053;DHT22;1536;51.098;6.414;2023-08-06T02:30:17;18.20;99.90
3053;DHT22;1536;51.098;6.414;2023-08-06T02:32:44;18.20;99.90
3053;DHT22;1536;51.098;6.414;2023-08-06T02:35:11;18.20;99.90
3053;DHT22;1536;51.098;6.414;2023-08-06T02:37:38;18.20;99.90
3053;DHT22;1536;51.098;6.414;2023-08-06T02:40:05;18.20;99.90
3053;DHT22;1536;51.098;6.414;2023-08-06T02:42:32;18.10;99.90
3053;DHT22;1536;51.098;6.414;2023-08-06T02:45:00;18.10;99.90
3053;DHT22;1536;51.098;6.414;2023-08-06T02:47:27;18.10;99.90
3053;DHT22;1536;51.098;6.414;2023-08-06T02:49:54;18.10;99.90
3053;DHT22;1536;51.098;6.414;2023-08-06T02:52:21;18.10;99.90
3053;DHT22;1536;51.098;6.414;2023-08-06T02:54:48;18.10;99.90
3053;DHT22;1536;51.098;6.414;2023-08-06T02:57:14;18.10;99.90
3053;DHT22;1536;51.098;6.414;2023-08-06T02:59:41;18.10;99.90
3053;DHT22;1536;51.098;6.414;2023-08-06T03:02:09;18.20;99.90
3053;DHT22;1536;51.098;6.414;2023-08-06T03:04:37;18.20;99.90
3053;DHT22;1536;51.098;6.414;2023-08-06T03:07:05;18.20;99.90
3053;DHT22;1536;51.098;6.414;2023-08-06T03:09:32;18.20;99.90
3053;DHT22;1536;51.098;6.414;2023-08-06T03:11:59;18.20;99.90
3053;DHT22;1536;51.098;6.414;2023-08-06T03:14:26;18.20;99.90
3053;DHT22;1536;51.098;6.414;2023-08-06T03:16:52;18.20;99.90
3053;DHT22;1536;51.098;6.414;2023-08-06T03:19:21;18.20;99.90
3053;DHT22;1536;51.098;6.414;2023-08-06T03:21:48;18.20;99.90
3053;DHT22;1536;51.098;6.414;2023-08-06T03:24:15;18.20;99.90
3053;DHT22;1536;51.098;6.414;2023-08-06T03:26:42;18.20;99.90
3053;DHT22;1536;51.098;6.414;2023-08-06T03:29:08;18.20;99.90
3053;DHT22;1536;51.098;6.414;2023-08-06T03:31:35;18.20;99.90
3053;DHT22;1536;51.098;6.414;2023-08-06T03:34:02;18.20;99.90
3053;DHT22;1536;51.098;6.414;2023-08-06T03:36:30;18.20;99.90
3053;DHT22;1536;51.098;6.414;2023-08-06T03:38:59;18.30;99.90
3053;DHT22;1536;51.098;6.414;2023-08-06T03:41:26;18.20;99.90
3053;DHT22;1536;51.098;6.414;2023-08-06T03:43:52;18.20;99.90
3053;DHT22;1536;51.098;6.414;2023-08-06T03:46:19;18.30;99.90
3053;DHT22;1536;51.098;6.414;2023-08-06T03:48:46;18.20;99.90
3053;DHT22;1536;51.098;6.414;2023-08-06T03:51:13;18.20;99.90
3053;DHT22;1536;51.098;6.414;2023-08-06T03:53:41;18.20;99.90
3053;DHT22;1536;51.098;6.414;2023-08-06T03:56:10;18.20;99.90
3053;DHT22;1536;51.098;6.414;2023-08-06T03:58:37;18.20;99.90
3053;DHT22;1536;51.098;6.414;2023-08-06T04:01:03;18.20;99.90
3053;DHT22;1536;51.098;6.414;2023-08-06T04:03:30;18.20;99.90
3053;DHT22;1536;51.098;6.414;2023-08-06T04:05:57;18.10;99.90
3053;DHT22;1536;51.098;6.414;2023-08-06T04:08:24;18.10;99.90
3053;DHT22;1536;51.098;6.414;2023-08-06T04:10:52;18.10;99.90
3053;DHT22;1536;51.098;6.414;2023-08-06T04:13:19;18.10;99.90
3053;DHT22;1536;51.098;6.414;2023-08-06T04:15:46;18.10;99.90
3053;DHT22;1536;51.098;6.414;2023-08-06T04:18:14;18.10;99.90
3053;DHT22;1536;51.098;6.414;2023-08-06T04:20:44;18.10;99.90
3053;DHT22;1536;51.098;6.414;2023-08-06T04:23:11;18.10;99.90
3053;DHT22;1536;51.098;6.414;2023-08-06T04:25:37;18.10;99.90
3053;DHT22;1536;51.098;6.414;2023-08-06T04:28:06;18.10;99.90
3053;DHT22;1536;51.098;6.414;2023-08-06T04:30:32;18.10;99.90
3053;DHT22;1536;51.098;6.414;2023-08-06T04:32:59;18.10;99.90
3053;DHT22;1536;51.098;6.414;2023-08-06T04:35:26;18.10;99.90
3053;DHT22;1536;51.098;6.414;2023-08-06T04:37:53;18.20;99.90
3053;DHT22;1536;51.098;6.414;2023-08-06T04:40:19;18.10;99.90
3053;DHT22;1536;51.098;6.414;2023-08-06T04:42:46;18.10;99.90
3053;DHT22;1536;51.098;6.414;2023-08-06T04:45:14;18.10;99.90
3053;DHT22;1536;51.098;6.414;2023-08-06T04:47:41;18.10;99.90
3053;DHT22;1536;51.098;6.414;2023-08-06T04:50:08;18.10;99.90
3053;DHT22;1536;51.098;6.414;2023-08-06T04:52:35;18.10;99.90
3053;DHT22;1536;51.098;6.414;2023-08-06T04:55:02;18.10;99.90
3053;DHT22;1536;51.098;6.414;2023-08-06T04:57:31;18.00;99.90
3053;DHT22;1536;51.098;6.414;2023-08-06T04:59:57;18.00;99.90
3053;DHT22;1536;51.098;6.414;2023-08-06T05:02:26;18.00;99.90
3053;DHT22;1536;51.098;6.414;2023-08-06T05:04:52;18.00;99.90
3053;DHT22;1536;51.098;6.414;2023-08-06T05:07:19;18.00;99.90
3053;DHT22;1536;51.098;6.414;2023-08-06T05:09:46;18.00;99.90
3053;DHT22;1536;51.098;6.414;2023-08-06T05:12:13;18.00;99.90
3053;DHT22;1536;51.098;6.414;2023-08-06T05:14:39;18.00;99.90
3053;DHT22;1536;51.098;6.414;2023-08-06T05:17:06;17.90;99.90
3053;DHT22;1536;51.098;6.414;2023-08-06T05:19:34;18.00;99.90
3053;DHT22;1536;51.098;6.414;2023-08-06T05:22:01;17.90;99.90
3053;DHT22;1536;51.098;6.414;2023-08-06T05:24:28;17.90;99.90
3053;DHT22;1536;51.098;6.414;2023-08-06T05:26:55;18.00;99.90
3053;DHT22;1536;51.098;6.414;2023-08-06T05:29:22;18.00;99.90
3053;DHT22;1536;51.098;6.414;2023-08-06T05:31:49;18.00;99.90
3053;DHT22;1536;51.098;6.414;2023-08-06T05:34:15;18.00;99.90
3053;DHT22;1536;51.098;6.414;2023-08-06T05:36:43;18.00;99.90
3053;DHT22;1536;51.098;6.414;2023-08-06T05:39:10;18.00;99.90
3053;DHT22;1536;51.098;6.414;2023-08-06T05:41:37;18.00;99.90
3053;DHT22;1536;51.098;6.414;2023-08-06T05:44:04;18.00;99.90
3053;DHT22;1536;51.098;6.414;2023-08-06T05:46:31;18.00;99.90
3053;DHT22;1536;51.098;6.414;2023-08-06T05:48:57;18.00;99.90
3053;DHT22;1536;51.098;6.414;2023-08-06T05:51:27;18.00;99.90
3053;DHT22;1536;51.098;6.414;2023-08-06T05:53:55;18.00;99.90
3053;DHT22;1536;51.098;6.414;2023-08-06T05:56:22;18.00;99.90
3053;DHT22;1536;51.098;6.414;2023-08-06T05:58:48;18.10;99.90
3053;DHT22;1536;51.098;6.414;2023-08-06T06:01:18;18.10;99.90
3053;DHT22;1536;51.098;6.414;2023-08-06T06:03:45;18.10;99.90
3053;DHT22;1536;51.098;6.414;2023-08-06T06:06:11;18.10;99.90
3053;DHT22;1536;51.098;6.414;2023-08-06T06:08:38;18.10;99.90
3053;DHT22;1536;51.098;6.414;2023-08-06T06:11:06;18.10;99.90
3053;DHT22;1536;51.098;6.414;2023-08-06T06:13:33;18.10;99.90
3053;DHT22;1536;51.098;6.414;2023-08-06T06:16:00;18.10;99.90
3053;DHT22;1536;51.098;6.414;2023-08-06T06:18:27;18.20;99.90
3053;DHT22;1536;51.098;6.414;2023-08-06T06:20:54;18.20;99.90
3053;DHT22;1536;51.098;6.414;2023-08-06T06:23:20;18.20;99.90
3053;DHT22;1536;51.098;6.414;2023-08-06T06:25:49;18.20;99.90
3053;DHT22;1536;51.098;6.414;2023-08-06T06:28:18;18.20;99.90
3053;DHT22;1536;51.098;6.414;2023-08-06T06:30:45;18.30;99.90
3053;DHT22;1536;51.098;6.414;2023-08-06T06:33:11;18.30;99.90
3053;DHT22;1536;51.098;6.414;2023-08-06T06:35:38;18.30;99.90
3053;DHT22;1536;51.098;6.414;2023-08-06T06:38:05;18.30;99.90
3053;DHT22;1536;51.098;6.414;2023-08-06T06:40:32;18.30;99.90
3053;DHT22;1536;51.098;6.414;2023-08-06T06:42:59;18.30;99.90
3053;DHT22;1536;51.098;6.414;2023-08-06T06:45:27;18.30;99.90
3053;DHT22;1536;51.098;6.414;2023-08-06T06:47:54;18.30;99.90
3053;DHT22;1536;51.098;6.414;2023-08-06T06:50:22;18.30;99.90
3053;DHT22;1536;51.098;6.414;2023-08-06T06:52:49;18.30;99.90
3053;DHT22;1536;51.098;6.414;2023-08-06T06:55:17;18.30;99.90
3053;DHT22;1536;51.098;6.414;2023-08-06T06:57:43;18.40;99.90
3053;DHT22;1536;51.098;6.414;2023-08-06T07:00:11;18.40;99.90
3053;DHT22;1536;51.098;6.414;2023-08-06T07:02:39;18.40;99.90
3053;DHT22;1536;51.098;6.414;2023-08-06T07:05:06;18.40;99.90
3053;DHT22;1536;51.098;6.414;2023-08-06T07:07:33;18.50;99.90
3053;DHT22;1536;51.098;6.414;2023-08-06T07:10:01;18.50;99.90
3053;DHT22;1536;51.098;6.414;2023-08-06T07:12:28;18.60;99.90
3053;DHT22;1536;51.098;6.414;2023-08-06T07:14:55;18.60;99.90
3053;DHT22;1536;51.098;6.414;2023-08-06T07:17:22;18.60;99.90
3053;DHT22;1536;51.098;6.414;2023-08-06T07:19:50;18.70;99.90
3053;DHT22;1536;51.098;6.414;2023-08-06T07:22:17;18.70;99.90
3053;DHT22;1536;51.098;6.414;2023-08-06T07:24:44;18.70;99.90
3053;DHT22;1536;51.098;6.414;2023-08-06T07:27:11;18.70;99.90
3053;DHT22;1536;51.098;6.414;2023-08-06T07:29:37;18.80;99.90
3053;DHT22;1536;51.098;6.414;2023-08-06T07:32:06;18.80;99.90
3053;DHT22;1536;51.098;6.414;2023-08-06T07:34:33;18.80;99.90
3053;DHT22;1536;51.098;6.414;2023-08-06T07:37:02;18.80;99.90
3053;DHT22;1536;51.098;6.414;2023-08-06T07:39:29;18.80;99.90
3053;DHT22;1536;51.098;6.414;2023-08-06T07:41:56;18.80;99.90
3053;DHT22;1536;51.098;6.414;2023-08-06T07:44:23;18.90;99.90
3053;DHT22;1536;51.098;6.414;2023-08-06T07:46:50;18.90;99.90
3053;DHT22;1536;51.098;6.414;2023-08-06T07:49:17;18.90;99.90
3053;DHT22;1536;51.098;6.414;2023-08-06T07:51:44;18.90;99.90
3053;DHT22;1536;51.098;6.414;2023-08-06T07:54:12;18.90;99.90
3053;DHT22;1536;51.098;6.414;2023-08-06T07:56:40;18.90;99.90
3053;DHT22;1536;51.098;6.414;2023-08-06T07:59:06;18.90;99.90
3053;DHT22;1536;51.098;6.414;2023-08-06T08:01:33;18.90;99.90
3053;DHT22;1536;51.098;6.414;2023-08-06T08:04:00;18.90;99.90
3053;DHT22;1536;51.098;6.414;2023-08-06T08:06:28;18.90;99.90
3053;DHT22;1536;51.098;6.414;2023-08-06T08:08:54;18.90;99.90
3053;DHT22;1536;51.098;6.414;2023-08-06T08:11:22;18.80;99.90
3053;DHT22;1536;51.098;6.414;2023-08-06T08:13:49;18.80;99.90
3053;DHT22;1536;51.098;6.414;2023-08-06T08:16:16;18.80;99.90
3053;DHT22;1536;51.098;6.414;2023-08-06T08:18:43;18.80;99.90
3053;DHT22;1536;51.098;6.414;2023-08-06T08:21:10;18.70;99.90
3053;DHT22;1536;51.098;6.414;2023-08-06T08:23:36;18.70;99.90
3053;DHT22;1536;51.098;6.414;2023-08-06T08:26:04;18.70;99.90
3053;DHT22;1536;51.098;6.414;2023-08-06T08:28:32;18.80;99.90
3053;DHT22;1536;51.098;6.414;2023-08-06T08:30:59;18.70;99.90
3053;DHT22;1536;51.098;6.414;2023-08-06T08:33:26;18.70;99.90
3053;DHT22;1536;51.098;6.414;2023-08-06T08:35:52;18.80;99.90
3053;DHT22;1536;51.098;6.414;2023-08-06T08:38:19;18.80;99.90
3053;DHT22;1536;51.098;6.414;2023-08-06T08:40:47;18.80;99.90
3053;DHT22;1536;51.098;6.414;2023-08-06T08:43:17;18.80;99.90
3053;DHT22;1536;51.098;6.414;2023-08-06T08:45:50;18.80;99.90
3053;DHT22;1536;51.098;6.414;2023-08-06T08:48:17;18.90;99.90
3053;DHT22;1536;51.098;6.414;2023-08-06T08:50:45;18.90;99.90
3053;DHT22;1536;51.098;6.414;2023-08-06T08:53:13;18.90;99.90
3053;DHT22;1536;51.098;6.414;2023-08-06T08:55:43;19.00;99.90
3053;DHT22;1536;51.098;6.414;2023-08-06T08:58:10;19.00;99.90
3053;DHT22;1536;51.098;6.414;2023-08-06T09:00:37;19.00;99.90
3053;DHT22;1536;51.098;6.414;2023-08-06T09:03:06;19.00;99.90
3053;DHT22;1536;51.098;6.414;2023-08-06T09:05:33;19.00;99.90
3053;DHT22;1536;51.098;6.414;2023-08-06T09:08:03;19.00;99.90
3053;DHT22;1536;51.098;6.414;2023-08-06T09:10:30;19.00;99.90
3053;DHT22;1536;51.098;6.414;2023-08-06T09:12:58;18.90;99.90
3053;DHT22;1536;51.098;6.414;2023-08-06T09:15:26;18.90;99.90
3053;DHT22;1536;51.098;6.414;2023-08-06T09:17:54;18.90;99.90
3053;DHT22;1536;51.098;6.414;2023-08-06T09:20:22;18.80;99.90
3053;DHT22;1536;51.098;6.414;2023-08-06T09:22:49;18.80;99.90
3053;DHT22;1536;51.098;6.414;2023-08-06T09:25:21;18.80;99.90
3053;DHT22;1536;51.098;6.414;2023-08-06T09:27:50;18.70;99.90
3053;DHT22;1536;51.098;6.414;2023-08-06T09:30:29;18.70;99.90
3053;DHT22;1536;51.098;6.414;2023-08-06T09:32:56;18.60;99.90
3053;DHT22;1536;51.098;6.414;2023-08-06T09:35:27;18.50;99.90
3053;DHT22;1536;51.098;6.414;2023-08-06T09:37:54;18.40;99.90
3053;DHT22;1536;51.098;6.414;2023-08-06T09:40:28;18.40;99.90
3053;DHT22;1536;51.098;6.414;2023-08-06T09:42:55;18.30;99.90
3053;DHT22;1536;51.098;6.414;2023-08-06T09:45:22;18.20;99.90
3053;DHT22;1536;51.098;6.414;2023-08-06T09:47:50;18.20;99.90
3053;DHT22;1536;51.098;6.414;2023-08-06T09:50:17;18.10;99.90
3053;DHT22;1536;51.098;6.414;2023-08-06T09:52:46;18.00;99.90
3053;DHT22;1536;51.098;6.414;2023-08-06T09:55:14;18.00;99.90
3053;DHT22;1536;51.098;6.414;2023-08-06T09:57:41;17.90;99.90
3053;DHT22;1536;51.098;6.414;2023-08-06T10:00:09;17.90;99.90
3053;DHT22;1536;51.098;6.414;2023-08-06T10:02:37;17.80;99.90
3053;DHT22;1536;51.098;6.414;2023-08-06T10:05:05;17.70;99.90
3053;DHT22;1536;51.098;6.414;2023-08-06T10:07:32;17.70;99.90
3053;DHT22;1536;51.098;6.414;2023-08-06T10:10:01;17.70;99.90
3053;DHT22;1536;51.098;6.414;2023-08-06T10:12:31;17.70;99.90
3053;DHT22;1536;51.098;6.414;2023-08-06T10:15:02;17.60;99.90
3053;DHT22;1536;51.098;6.414;2023-08-06T10:17:31;17.60;99.90
3053;DHT22;1536;51.098;6.414;2023-08-06T10:20:00;17.60;99.90
3053;DHT22;1536;51.098;6.414;2023-08-06T10:22:27;17.50;99.90
3053;DHT22;1536;51.098;6.414;2023-08-06T10:24:55;17.50;99.90
3053;DHT22;1536;51.098;6.414;2023-08-06T10:27:30;17.50;99.90
3053;DHT22;1536;51.098;6.414;2023-08-06T10:30:21;17.50;99.90
3053;DHT22;1536;51.098;6.414;2023-08-06T10:32:48;17.40;99.90
3053;DHT22;1536;51.098;6.414;2023-08-06T10:35:30;17.40;99.90
3053;DHT22;1536;51.098;6.414;2023-08-06T10:38:03;17.40;99.90
3053;DHT22;1536;51.098;6.414;2023-08-06T10:40:31;17.40;99.90
3053;DHT22;1536;51.098;6.414;2023-08-06T10:43:03;17.40;99.90
3053;DHT22;1536;51.098;6.414;2023-08-06T10:45:34;17.40;99.90
3053;DHT22;1536;51.098;6.414;2023-08-06T10:48:02;17.50;99.90
3053;DHT22;1536;51.098;6.414;2023-08-06T10:50:30;17.50;99.90
3053;DHT22;1536;51.098;6.414;2023-08-06T10:52:57;17.50;99.90
3053;DHT22;1536;51.098;6.414;2023-08-06T10:55:28;17.60;99.90
3053;DHT22;1536;51.098;6.414;2023-08-06T10:57:58;17.60;99.90
3053;DHT22;1536;51.098;6.414;2023-08-06T11:00:26;17.60;99.90
3053;DHT22;1536;51.098;6.414;2023-08-06T11:02:53;17.70;99.90
3053;DHT22;1536;51.098;6.414;2023-08-06T11:05:23;17.80;99.90
3053;DHT22;1536;51.098;6.414;2023-08-06T11:07:50;17.90;99.90
3053;DHT22;1536;51.098;6.414;2023-08-06T11:10:18;18.00;99.90
3053;DHT22;1536;51.098;6.414;2023-08-06T11:12:45;18.10;99.90
3053;DHT22;1536;51.098;6.414;2023-08-06T11:15:12;18.20;99.90
3053;DHT22;1536;51.098;6.414;2023-08-06T11:17:41;18.20;99.90
3053;DHT22;1536;51.098;6.414;2023-08-06T11:20:10;18.20;99.90
3053;DHT22;1536;51.098;6.414;2023-08-06T11:22:37;18.20;99.90
3053;DHT22;1536;51.098;6.414;2023-08-06T11:25:06;18.20;99.90
3053;DHT22;1536;51.098;6.414;2023-08-06T11:27:34;18.30;99.90
3053;DHT22;1536;51.098;6.414;2023-08-06T11:30:01;18.30;99.90
3053;DHT22;1536;51.098;6.414;2023-08-06T11:32:27;18.30;99.90
3053;DHT22;1536;51.098;6.414;2023-08-06T11:34:56;18.30;99.90
3053;DHT22;1536;51.098;6.414;2023-08-06T11:37:23;18.30;99.90
3053;DHT22;1536;51.098;6.414;2023-08-06T11:39:51;18.20;99.90
3053;DHT22;1536;51.098;6.414;2023-08-06T11:42:19;18.20;99.90
3053;DHT22;1536;51.098;6.414;2023-08-06T11:44:46;18.20;99.90
3053;DHT22;1536;51.098;6.414;2023-08-06T11:47:17;18.20;99.90
3053;DHT22;1536;51.098;6.414;2023-08-06T11:49:47;18.20;99.90
3053;DHT22;1536;51.098;6.414;2023-08-06T11:52:17;18.10;99.90
3053;DHT22;1536;51.098;6.414;2023-08-06T11:55:00;18.10;99.90
3053;DHT22;1536;51.098;6.414;2023-08-06T11:57:29;18.10;99.90
3053;DHT22;1536;51.098;6.414;2023-08-06T12:00:02;18.10;99.90
3053;DHT22;1536;51.098;6.414;2023-08-06T12:02:34;18.10;99.90
3053;DHT22;1536;51.098;6.414;2023-08-06T12:05:04;18.20;99.90
3053;DHT22;1536;51.098;6.414;2023-08-06T12:07:48;18.20;99.90
3053;DHT22;1536;51.098;6.414;2023-08-06T12:10:16;18.20;99.90
3053;DHT22;1536;51.098;6.414;2023-08-06T12:12:45;18.20;99.90
3053;DHT22;1536;51.098;6.414;2023-08-06T12:15:12;18.20;99.90
3053;DHT22;1536;51.098;6.414;2023-08-06T12:17:39;18.20;99.90
3053;DHT22;1536;51.098;6.414;2023-08-06T12:20:07;18.20;99.90
3053;DHT22;1536;51.098;6.414;2023-08-06T12:22:35;18.20;99.90
3053;DHT22;1536;51.098;6.414;2023-08-06T12:25:09;18.30;99.90
3053;DHT22;1536;51.098;6.414;2023-08-06T12:27:38;18.40;99.90
3053;DHT22;1536;51.098;6.414;2023-08-06T12:30:06;18.50;99.90
3053;DHT22;1536;51.098;6.414;2023-08-06T12:32:34;18.50;99.90
3053;DHT22;1536;51.098;6.414;2023-08-06T12:35:01;18.60;99.90
3053;DHT22;1536;51.098;6.414;2023-08-06T12:37:28;18.70;99.90
3053;DHT22;1536;51.098;6.414;2023-08-06T12:39:55;18.70;99.90
3053;DHT22;1536;51.098;6.414;2023-08-06T12:42:23;18.70;99.90
3053;DHT22;1536;51.098;6.414;2023-08-06T12:44:51;18.70;99.90
3053;DHT22;1536;51.098;6.414;2023-08-06T12:47:18;18.70;99.90
3053;DHT22;1536;51.098;6.414;2023-08-06T12:49:46;18.70;99.90
3053;DHT22;1536;51.098;6.414;2023-08-06T12:52:15;18.70;99.90
3053;DHT22;1536;51.098;6.414;2023-08-06T12:54:42;18.60;99.90
3053;DHT22;1536;51.098;6.414;2023-08-06T12:57:11;18.50;99.90
3053;DHT22;1536;51.098;6.414;2023-08-06T12:59:39;18.40;99.90
3053;DHT22;1536;51.098;6.414;2023-08-06T13:02:06;18.40;99.90
3053;DHT22;1536;51.098;6.414;2023-08-06T13:04:33;18.40;99.90
3053;DHT22;1536;51.098;6.414;2023-08-06T13:07:00;18.40;99.90
3053;DHT22;1536;51.098;6.414;2023-08-06T13:09:27;18.40;99.90
3053;DHT22;1536;51.098;6.414;2023-08-06T13:11:53;18.30;99.90
3053;DHT22;1536;51.098;6.414;2023-08-06T13:14:20;18.30;99.90
3053;DHT22;1536;51.098;6.414;2023-08-06T13:16:48;18.30;99.90
3053;DHT22;1536;51.098;6.414;2023-08-06T13:19:15;18.40;99.90
3053;DHT22;1536;51.098;6.414;2023-08-06T13:22:00;18.40;99.90
3053;DHT22;1536;51.098;6.414;2023-08-06T13:24:28;18.50;99.90
3053;DHT22;1536;51.098;6.414;2023-08-06T13:26:55;18.50;99.90
3053;DHT22;1536;51.098;6.414;2023-08-06T13:29:22;18.50;99.90
3053;DHT22;1536;51.098;6.414;2023-08-06T13:31:50;18.50;99.90
3053;DHT22;1536;51.098;6.414;2023-08-06T13:34:17;18.60;99.90
3053;DHT22;1536;51.098;6.414;2023-08-06T13:36:44;18.70;99.90
3053;DHT22;1536;51.098;6.414;2023-08-06T13:39:11;18.90;99.90
3053;DHT22;1536;51.098;6.414;2023-08-06T13:41:38;18.90;99.90
3053;DHT22;1536;51.098;6.414;2023-08-06T13:44:06;18.90;99.90
3053;DHT22;1536;51.098;6.414;2023-08-06T13:46:32;18.90;99.90
3053;DHT22;1536;51.098;6.414;2023-08-06T13:49:01;18.80;99.90
3053;DHT22;1536;51.098;6.414;2023-08-06T13:51:28;18.80;99.90
3053;DHT22;1536;51.098;6.414;2023-08-06T13:53:55;18.80;99.90
3053;DHT22;1536;51.098;6.414;2023-08-06T13:56:23;18.80;99.90
3053;DHT22;1536;51.098;6.414;2023-08-06T13:58:51;18.70;99.90
3053;DHT22;1536;51.098;6.414;2023-08-06T14:01:18;18.70;99.90
3053;DHT22;1536;51.098;6.414;2023-08-06T14:03:46;18.70;99.90
3053;DHT22;1536;51.098;6.414;2023-08-06T14:06:15;18.80;99.90
3053;DHT22;1536;51.098;6.414;2023-08-06T14:08:42;18.80;99.90
3053;DHT22;1536;51.098;6.414;2023-08-06T14:11:08;18.80;99.90
3053;DHT22;1536;51.098;6.414;2023-08-06T14:13:36;18.90;99.90
3053;DHT22;1536;51.098;6.414;2023-08-06T14:16:03;18.90;99.90
3053;DHT22;1536;51.098;6.414;2023-08-06T14:18:30;18.90;99.90
3053;DHT22;1536;51.098;6.414;2023-08-06T14:20:56;19.00;99.90
3053;DHT22;1536;51.098;6.414;2023-08-06T14:23:25;19.00;99.90
3053;DHT22;1536;51.098;6.414;2023-08-06T14:25:54;19.10;99.90
3053;DHT22;1536;51.098;6.414;2023-08-06T14:28:21;19.10;99.90
3053;DHT22;1536;51.098;6.414;2023-08-06T14:30:48;19.10;99.90
3053;DHT22;1536;51.098;6.414;2023-08-06T14:33:15;19.20;99.90
3053;DHT22;1536;51.098;6.414;2023-08-06T14:35:43;19.20;99.90
3053;DHT22;1536;51.098;6.414;2023-08-06T14:38:10;19.20;99.90
3053;DHT22;1536;51.098;6.414;2023-08-06T14:40:38;19.30;99.90
3053;DHT22;1536;51.098;6.414;2023-08-06T14:45:48;19.40;99.90
3053;DHT22;1536;51.098;6.414;2023-08-06T14:48:14;19.50;99.90
3053;DHT22;1536;51.098;6.414;2023-08-06T14:50:41;19.60;99.90
3053;DHT22;1536;51.098;6.414;2023-08-06T14:53:09;19.60;99.90
3053;DHT22;1536;51.098;6.414;2023-08-06T14:55:38;19.60;99.90
3053;DHT22;1536;51.098;6.414;2023-08-06T14:58:07;19.60;99.90
3053;DHT22;1536;51.098;6.414;2023-08-06T15:00:34;19.60;99.90
3053;DHT22;1536;51.098;6.414;2023-08-06T15:03:01;19.60;99.90
3053;DHT22;1536;51.098;6.414;2023-08-06T15:05:28;19.60;99.90
3053;DHT22;1536;51.098;6.414;2023-08-06T15:07:55;19.60;99.90
3053;DHT22;1536;51.098;6.414;2023-08-06T15:10:21;19.60;99.90
3053;DHT22;1536;51.098;6.414;2023-08-06T15:12:49;19.60;99.90
3053;DHT22;1536;51.098;6.414;2023-08-06T15:15:16;19.60;99.90
3053;DHT22;1536;51.098;6.414;2023-08-06T15:17:43;19.60;99.90
3053;DHT22;1536;51.098;6.414;2023-08-06T15:20:12;19.60;99.90
3053;DHT22;1536;51.098;6.414;2023-08-06T15:22:39;19.60;99.90
3053;DHT22;1536;51.098;6.414;2023-08-06T15:25:06;19.50;99.90
3053;DHT22;1536;51.098;6.414;2023-08-06T15:30:16;19.50;99.90
3053;DHT22;1536;51.098;6.414;2023-08-06T15:32:43;19.40;99.90
3053;DHT22;1536;51.098;6.414;2023-08-06T15:35:12;19.40;99.90
3053;DHT22;1536;51.098;6.414;2023-08-06T15:37:40;19.30;99.90
3053;DHT22;1536;51.098;6.414;2023-08-06T15:40:09;19.20;99.90
3053;DHT22;1536;51.098;6.414;2023-08-06T15:42:36;19.20;99.90
3053;DHT22;1536;51.098;6.414;2023-08-06T15:45:03;19.20;99.90
3053;DHT22;1536;51.098;6.414;2023-08-06T15:47:33;19.10;99.90
3053;DHT22;1536;51.098;6.414;2023-08-06T15:50:06;19.10;99.90
3053;DHT22;1536;51.098;6.414;2023-08-06T15:52:33;19.00;99.90
3053;DHT22;1536;51.098;6.414;2023-08-06T15:55:00;18.90;99.90
3053;DHT22;1536;51.098;6.414;2023-08-06T15:57:30;18.90;99.90
3053;DHT22;1536;51.098;6.414;2023-08-06T15:59:57;18.80;99.90
3053;DHT22;1536;51.098;6.414;2023-08-06T16:02:24;18.80;99.90
3053;DHT22;1536;51.098;6.414;2023-08-06T16:04:55;18.70;99.90
3053;DHT22;1536;51.098;6.414;2023-08-06T16:07:22;18.70;99.90
3053;DHT22;1536;51.098;6.414;2023-08-06T16:09:50;18.60;99.90
3053;DHT22;1536;51.098;6.414;2023-08-06T16:12:17;18.60;99.90